sensor_id;sensor_type;location;lat;lon;timestamp;temperature;humidity
72919;SHT30;61063;55.700;26.994;2022-10-28T00:04:39;11.1;90.7
72919;SHT30;61063;55.700;26.994;2022-10-28T00:09:11;11.1;90.6
72919;SHT30;61063;55.700;26.994;2022-10-28T00:14:02;11.1;90.5
72919;SHT30;61063;55.700;26.994;2022-10-28T00:19:15;11.1;90.5
72919;SHT30;61063;55.700;26.994;2022-10-28T00:24:25;11.1;90.4
72919;SHT30;61063;55.700;26.994;2022-10-28T00:29:27;11.2;90.4
72919;SHT30;61063;55.700;26.994;2022-10-28T00:34:39;11.2;90.4
72919;SHT30;61063;55.700;26.994;2022-10-28T00:39:39;11.2;90.5
72919;SHT30;61063;55.700;26.994;2022-10-28T00:44:47;11.2;90.6
72919;SHT30;61063;55.700;26.994;2022-10-28T00:49:29;11.2;90.8
72919;SHT30;61063;55.700;26.994;2022-10-28T00:54:11;11.2;91
72919;SHT30;61063;55.700;26.994;2022-10-28T00:59:28;11.2;91.1
72919;SHT30;61063;55.700;26.994;2022-10-28T01:04:01;11.2;91.3
72919;SHT30;61063;55.700;26.994;2022-10-28T01:09:39;11.2;91.4
72919;SHT30;61063;55.700;26.994;2022-10-28T01:14:44;11.3;91.4
72919;SHT30;61063;55.700;26.994;2022-10-28T01:20:33;11.3;91.5
72919;SHT30;61063;55.700;26.994;2022-10-28T01:24:24;11.3;91.6
72919;SHT30;61063;55.700;26.994;2022-10-28T01:29:11;11.3;91.6
72919;SHT30;61063;55.700;26.994;2022-10-28T01:34:21;11.4;91.5
72919;SHT30;61063;55.700;26.994;2022-10-28T01:39:29;11.4;91.5
72919;SHT30;61063;55.700;26.994;2022-10-28T01:44:17;11.4;91.6
72919;SHT30;61063;55.700;26.994;2022-10-28T01:49:28;11.4;91.7
72919;SHT30;61063;55.700;26.994;2022-10-28T01:54:05;11.4;91.8
72919;SHT30;61063;55.700;26.994;2022-10-28T01:59:45;11.4;91.8
72919;SHT30;61063;55.700;26.994;2022-10-28T02:04:45;11.5;91.7
72919;SHT30;61063;55.700;26.994;2022-10-28T02:09:33;11.4;91.7
72919;SHT30;61063;55.700;26.994;2022-10-28T02:14:34;11.5;91.7
72919;SHT30;61063;55.700;26.994;2022-10-28T02:19:46;11.5;91.6
72919;SHT30;61063;55.700;26.994;2022-10-28T02:24:47;11.5;91.5
72919;SHT30;61063;55.700;26.994;2022-10-28T02:29:18;11.6;91.4
72919;SHT30;61063;55.700;26.994;2022-10-28T02:34:45;11.6;91.2
72919;SHT30;61063;55.700;26.994;2022-10-28T02:39:13;11.6;91.2
72919;SHT30;61063;55.700;26.994;2022-10-28T02:44:46;11.6;91.2
72919;SHT30;61063;55.700;26.994;2022-10-28T02:49:33;11.6;91.2
72919;SHT30;61063;55.700;26.994;2022-10-28T02:54:19;11.6;91.3
72919;SHT30;61063;55.700;26.994;2022-10-28T02:59:17;11.6;91.3
72919;SHT30;61063;55.700;26.994;2022-10-28T03:04:27;11.6;91.3
72919;SHT30;61063;55.700;26.994;2022-10-28T03:09:05;11.6;91.4
72919;SHT30;61063;55.700;26.994;2022-10-28T03:14:43;11.6;91.4
72919;SHT30;61063;55.700;26.994;2022-10-28T03:19:45;11.5;91.6
72919;SHT30;61063;55.700;26.994;2022-10-28T03:24:29;11.5;91.7
72919;SHT30;61063;55.700;26.994;2022-10-28T03:29:29;11.5;91.7
72919;SHT30;61063;55.700;26.994;2022-10-28T03:34:01;11.5;91.8
72919;SHT30;61063;55.700;26.994;2022-10-28T03:39:45;11.4;91.8
72919;SHT30;61063;55.700;26.994;2022-10-28T03:44:05;11.4;91.9
72919;SHT30;61063;55.700;26.994;2022-10-28T03:49:45;11.4;91.9
72919;SHT30;61063;55.700;26.994;2022-10-28T03:54:13;11.5;91.8
72919;SHT30;61063;55.700;26.994;2022-10-28T03:59:05;11.5;91.7
72919;SHT30;61063;55.700;26.994;2022-10-28T04:04:19;11.4;91.8
72919;SHT30;61063;55.700;26.994;2022-10-28T04:09:25;11.4;91.9
72919;SHT30;61063;55.700;26.994;2022-10-28T04:14:15;11.4;91.9
72919;SHT30;61063;55.700;26.994;2022-10-28T04:19:27;11.4;91.9
72919;SHT30;61063;55.700;26.994;2022-10-28T04:24:45;11.4;91.9
72919;SHT30;61063;55.700;26.994;2022-10-28T04:29:45;11.4;91.9
72919;SHT30;61063;55.700;26.994;2022-10-28T04:34:45;11.4;91.9
72919;SHT30;61063;55.700;26.994;2022-10-28T04:39:27;11.4;91.9
72919;SHT30;61063;55.700;26.994;2022-10-28T04:44:29;11.4;91.9
72919;SHT30;61063;55.700;26.994;2022-10-28T04:49:45;11.3;92
72919;SHT30;61063;55.700;26.994;2022-10-28T04:54:45;11.3;92.1
72919;SHT30;61063;55.700;26.994;2022-10-28T04:59:15;11.3;92.1
72919;SHT30;61063;55.700;26.994;2022-10-28T05:04:43;11.3;92.1
72919;SHT30;61063;55.700;26.994;2022-10-28T05:09:03;11.3;92.1
72919;SHT30;61063;55.700;26.994;2022-10-28T05:14:03;11.3;92.2
72919;SHT30;61063;55.700;26.994;2022-10-28T05:19:17;11.2;92.3
72919;SHT30;61063;55.700;26.994;2022-10-28T05:24:27;11.2;92.3
72919;SHT30;61063;55.700;26.994;2022-10-28T05:29:43;11.3;92.3
72919;SHT30;61063;55.700;26.994;2022-10-28T05:34:27;11.3;92.2
72919;SHT30;61063;55.700;26.994;2022-10-28T05:39:41;11.3;92.1
72919;SHT30;61063;55.700;26.994;2022-10-28T05:44:41;11.3;92.1
72919;SHT30;61063;55.700;26.994;2022-10-28T05:49:41;11.4;91.9
72919;SHT30;61063;55.700;26.994;2022-10-28T05:54:25;11.4;91.9
72919;SHT30;61063;55.700;26.994;2022-10-28T05:59:15;11.4;91.9
72919;SHT30;61063;55.700;26.994;2022-10-28T06:04:03;11.4;91.9
72919;SHT30;61063;55.700;26.994;2022-10-28T06:09:41;11.4;91.8
72919;SHT30;61063;55.700;26.994;2022-10-28T06:14:15;11.4;91.8
72919;SHT30;61063;55.700;26.994;2022-10-28T06:19:43;11.4;91.8
72919;SHT30;61063;55.700;26.994;2022-10-28T06:24:11;11.4;91.7
72919;SHT30;61063;55.700;26.994;2022-10-28T06:29:03;11.5;91.6
72919;SHT30;61063;55.700;26.994;2022-10-28T06:34:17;11.5;91.5
72919;SHT30;61063;55.700;26.994;2022-10-28T06:39:25;11.5;91.5
72919;SHT30;61063;55.700;26.994;2022-10-28T06:44:13;11.5;91.4
72919;SHT30;61063;55.700;26.994;2022-10-28T06:49:13;11.6;91.3
72919;SHT30;61063;55.700;26.994;2022-10-28T06:53:51;11.7;91
72919;SHT30;61063;55.700;26.994;2022-10-28T06:59:43;11.9;90.8
72919;SHT30;61063;55.700;26.994;2022-10-28T07:04:41;12.1;90.5
72919;SHT30;61063;55.700;26.994;2022-10-28T07:09:23;12.3;90
72919;SHT30;61063;55.700;26.994;2022-10-28T07:14:27;12.4;89.5
72919;SHT30;61063;55.700;26.994;2022-10-28T07:19:43;12.4;89.1
72919;SHT30;61063;55.700;26.994;2022-10-28T07:24:43;12.3;89
72919;SHT30;61063;55.700;26.994;2022-10-28T07:29:15;12.2;89.3
72919;SHT30;61063;55.700;26.994;2022-10-28T07:34:41;12.3;89.5
72919;SHT30;61063;55.700;26.994;2022-10-28T07:39:11;12.5;89
72919;SHT30;61063;55.700;26.994;2022-10-28T07:44:41;12.5;88.6
72919;SHT30;61063;55.700;26.994;2022-10-28T07:49:15;12.5;88.5
72919;SHT30;61063;55.700;26.994;2022-10-28T07:54:25;12.5;88.4
72919;SHT30;61063;55.700;26.994;2022-10-28T07:59:13;12.5;88.3
72919;SHT30;61063;55.700;26.994;2022-10-28T08:04:27;12.5;88.4
72919;SHT30;61063;55.700;26.994;2022-10-28T08:09:39;12.4;88.4
72919;SHT30;61063;55.700;26.994;2022-10-28T08:14:41;12.4;88.5
72919;SHT30;61063;55.700;26.994;2022-10-28T08:19:41;12.3;88.6
72919;SHT30;61063;55.700;26.994;2022-10-28T08:24:25;12.2;88.8
72919;SHT30;61063;55.700;26.994;2022-10-28T08:29:27;12.2;89.1
72919;SHT30;61063;55.700;26.994;2022-10-28T08:34:43;12.1;89.4
72919;SHT30;61063;55.700;26.994;2022-10-28T08:39:41;12.1;89.5
72919;SHT30;61063;55.700;26.994;2022-10-28T08:45:21;12.2;89.7
72919;SHT30;61063;55.700;26.994;2022-10-28T08:49:32;12.3;89.4
72919;SHT30;61063;55.700;26.994;2022-10-28T08:54:11;12.3;89.2
72919;SHT30;61063;55.700;26.994;2022-10-28T08:59:14;12.3;89.3
72919;SHT30;61063;55.700;26.994;2022-10-28T09:04:17;12.3;89.3
72919;SHT30;61063;55.700;26.994;2022-10-28T09:09:23;12.3;89.6
72919;SHT30;61063;55.700;26.994;2022-10-28T09:14:06;12.4;89.4
72919;SHT30;61063;55.700;26.994;2022-10-28T09:19:29;12.4;89.6
72919;SHT30;61063;55.700;26.994;2022-10-28T09:24:34;12.4;89.3
72919;SHT30;61063;55.700;26.994;2022-10-28T09:29:42;12.4;89.4
72919;SHT30;61063;55.700;26.994;2022-10-28T09:34:42;12.5;89.2
72919;SHT30;61063;55.700;26.994;2022-10-28T09:39:23;12.5;89
72919;SHT30;61063;55.700;26.994;2022-10-28T09:44:25;12.6;89
72919;SHT30;61063;55.700;26.994;2022-10-28T09:49:01;12.6;89.2
72919;SHT30;61063;55.700;26.994;2022-10-28T09:54:42;12.5;89
72919;SHT30;61063;55.700;26.994;2022-10-28T09:59:13;12.5;89.2
72919;SHT30;61063;55.700;26.994;2022-10-28T10:04:41;12.4;89.5
72919;SHT30;61063;55.700;26.994;2022-10-28T10:08:57;12.4;89.3
72919;SHT30;61063;55.700;26.994;2022-10-28T10:13:49;12.4;89.3
72919;SHT30;61063;55.700;26.994;2022-10-28T10:19:15;12.5;89.2
72919;SHT30;61063;55.700;26.994;2022-10-28T10:24:23;12.6;89
72919;SHT30;61063;55.700;26.994;2022-10-28T10:29:42;12.8;88.7
72919;SHT30;61063;55.700;26.994;2022-10-28T10:34:42;12.9;87.9
72919;SHT30;61063;55.700;26.994;2022-10-28T10:39:01;13.1;87.6
72919;SHT30;61063;55.700;26.994;2022-10-28T10:44:30;13.3;87.1
72919;SHT30;61063;55.700;26.994;2022-10-28T10:49:29;13.5;86.7
72919;SHT30;61063;55.700;26.994;2022-10-28T10:54:30;13.5;86.4
72919;SHT30;61063;55.700;26.994;2022-10-28T10:59:01;13.6;86.4
72919;SHT30;61063;55.700;26.994;2022-10-28T11:04:03;13.6;85.9
72919;SHT30;61063;55.700;26.994;2022-10-28T11:09:41;13.6;85.8
72919;SHT30;61063;55.700;26.994;2022-10-28T11:14:29;13.6;85.5
72919;SHT30;61063;55.700;26.994;2022-10-28T11:19:18;13.5;85.6
72919;SHT30;61063;55.700;26.994;2022-10-28T11:24:47;13.6;85.5
72919;SHT30;61063;55.700;26.994;2022-10-28T11:29:06;13.6;85
72919;SHT30;61063;55.700;26.994;2022-10-28T11:34:40;13.6;84.7
72919;SHT30;61063;55.700;26.994;2022-10-28T11:39:17;13.6;84.9
72919;SHT30;61063;55.700;26.994;2022-10-28T11:44:43;13.5;84.5
72919;SHT30;61063;55.700;26.994;2022-10-28T11:50:16;13.3;84.6
72919;SHT30;61063;55.700;26.994;2022-10-28T11:54:06;13.4;84.6
72919;SHT30;61063;55.700;26.994;2022-10-28T11:59:32;13.2;84.6
72919;SHT30;61063;55.700;26.994;2022-10-28T12:04:46;13.3;84.7
72919;SHT30;61063;55.700;26.994;2022-10-28T12:09:32;13.3;84.4
72919;SHT30;61063;55.700;26.994;2022-10-28T12:14:15;13.4;84.1
72919;SHT30;61063;55.700;26.994;2022-10-28T12:19:44;13.3;84.1
72919;SHT30;61063;55.700;26.994;2022-10-28T12:24:16;13.3;84.1
72919;SHT30;61063;55.700;26.994;2022-10-28T12:29:29;13.1;84.5
72919;SHT30;61063;55.700;26.994;2022-10-28T12:34:44;12.9;85
72919;SHT30;61063;55.700;26.994;2022-10-28T12:39:44;12.8;85.5
72919;SHT30;61063;55.700;26.994;2022-10-28T12:44:07;12.6;85.9
72919;SHT30;61063;55.700;26.994;2022-10-28T12:49:33;12.6;86.2
72919;SHT30;61063;55.700;26.994;2022-10-28T12:54:16;12.6;86.3
72919;SHT30;61063;55.700;26.994;2022-10-28T12:59:44;12.6;86.5
72919;SHT30;61063;55.700;26.994;2022-10-28T13:04:43;12.7;86.6
72919;SHT30;61063;55.700;26.994;2022-10-28T13:09:17;12.8;86.5
72919;SHT30;61063;55.700;26.994;2022-10-28T13:14:33;12.8;86.2
72919;SHT30;61063;55.700;26.994;2022-10-28T13:19:34;12.8;86.2
72919;SHT30;61063;55.700;26.994;2022-10-28T13:24:30;12.7;86.3
72919;SHT30;61063;55.700;26.994;2022-10-28T13:29:29;12.6;86.5
72919;SHT30;61063;55.700;26.994;2022-10-28T13:34:03;12.6;86.6
72919;SHT30;61063;55.700;26.994;2022-10-28T13:39:24;12.6;86.6
72919;SHT30;61063;55.700;26.994;2022-10-28T13:44:25;12.5;86.8
72919;SHT30;61063;55.700;26.994;2022-10-28T13:49:20;12.5;87
72919;SHT30;61063;55.700;26.994;2022-10-28T13:54:51;12.5;87.2
72919;SHT30;61063;55.700;26.994;2022-10-28T13:59:48;12.4;87.4
72919;SHT30;61063;55.700;26.994;2022-10-28T14:04:26;12.5;87.4
72919;SHT30;61063;55.700;26.994;2022-10-28T14:09:03;12.5;87.2
72919;SHT30;61063;55.700;26.994;2022-10-28T14:14:51;12.4;87.1
72919;SHT30;61063;55.700;26.994;2022-10-28T14:19:46;12.4;87.1
72919;SHT30;61063;55.700;26.994;2022-10-28T14:24:05;12.4;87.1
72919;SHT30;61063;55.700;26.994;2022-10-28T14:29:29;12.4;87.2
72919;SHT30;61063;55.700;26.994;2022-10-28T14:34:38;12.3;87.1
72919;SHT30;61063;55.700;26.994;2022-10-28T14:39:44;12.3;87.3
72919;SHT30;61063;55.700;26.994;2022-10-28T14:44:18;12.3;87.4
72919;SHT30;61063;55.700;26.994;2022-10-28T14:49:54;12.3;87.4
72919;SHT30;61063;55.700;26.994;2022-10-28T14:54:16;12.2;87.5
72919;SHT30;61063;55.700;26.994;2022-10-28T14:59:43;12.2;87.5
72919;SHT30;61063;55.700;26.994;2022-10-28T15:04:15;12.1;87.4
72919;SHT30;61063;55.700;26.994;2022-10-28T15:09:41;12;87.5
72919;SHT30;61063;55.700;26.994;2022-10-28T15:14:44;11.8;88.1
72919;SHT30;61063;55.700;26.994;2022-10-28T15:19:04;11.7;88.4
72919;SHT30;61063;55.700;26.994;2022-10-28T15:24:15;11.6;88.7
72919;SHT30;61063;55.700;26.994;2022-10-28T15:29:29;11.6;88.7
72919;SHT30;61063;55.700;26.994;2022-10-28T15:34:41;11.5;88.8
72919;SHT30;61063;55.700;26.994;2022-10-28T15:39:04;11.5;88.9
72919;SHT30;61063;55.700;26.994;2022-10-28T15:44:23;11.5;89.1
72919;SHT30;61063;55.700;26.994;2022-10-28T15:49:30;11.6;89.1
72919;SHT30;61063;55.700;26.994;2022-10-28T15:54:29;11.6;89
72919;SHT30;61063;55.700;26.994;2022-10-28T15:59:15;11.6;88.8
72919;SHT30;61063;55.700;26.994;2022-10-28T16:04:43;11.6;88.5
72919;SHT30;61063;55.700;26.994;2022-10-28T16:09:11;11.5;88.5
72919;SHT30;61063;55.700;26.994;2022-10-28T16:14:43;11.3;88.7
72919;SHT30;61063;55.700;26.994;2022-10-28T16:19:18;11.2;88.7
72919;SHT30;61063;55.700;26.994;2022-10-28T16:24:43;11.1;88.8
72919;SHT30;61063;55.700;26.994;2022-10-28T16:29:03;11;89
72919;SHT30;61063;55.700;26.994;2022-10-28T16:34:03;10.9;89.2
72919;SHT30;61063;55.700;26.994;2022-10-28T16:39:29;10.8;89.5
72919;SHT30;61063;55.700;26.994;2022-10-28T16:44:27;10.8;89.8
72919;SHT30;61063;55.700;26.994;2022-10-28T16:49:41;10.8;90
72919;SHT30;61063;55.700;26.994;2022-10-28T16:54:43;10.8;90.1
72919;SHT30;61063;55.700;26.994;2022-10-28T16:59:03;10.8;90.2
72919;SHT30;61063;55.700;26.994;2022-10-28T17:04:29;10.8;90.1
72919;SHT30;61063;55.700;26.994;2022-10-28T17:09:41;10.8;90.1
72919;SHT30;61063;55.700;26.994;2022-10-28T17:14:13;10.7;90.2
72919;SHT30;61063;55.700;26.994;2022-10-28T17:19:41;10.7;90.5
72919;SHT30;61063;55.700;26.994;2022-10-28T17:24:43;10.8;90.5
72919;SHT30;61063;55.700;26.994;2022-10-28T17:29:43;10.7;90.5
72919;SHT30;61063;55.700;26.994;2022-10-28T17:34:15;10.7;90.6
72919;SHT30;61063;55.700;26.994;2022-10-28T17:39:43;10.8;90.8
72919;SHT30;61063;55.700;26.994;2022-10-28T17:44:03;10.8;91
72919;SHT30;61063;55.700;26.994;2022-10-28T17:49:03;10.9;91
72919;SHT30;61063;55.700;26.994;2022-10-28T17:54:15;11;90.8
72919;SHT30;61063;55.700;26.994;2022-10-28T17:59:29;11.1;90.7
72919;SHT30;61063;55.700;26.994;2022-10-28T18:04:43;11.2;90.5
72919;SHT30;61063;55.700;26.994;2022-10-28T18:09:15;11.3;90.2
72919;SHT30;61063;55.700;26.994;2022-10-28T18:14:43;11.3;90.1
72919;SHT30;61063;55.700;26.994;2022-10-28T18:19:29;11.4;90
72919;SHT30;61063;55.700;26.994;2022-10-28T18:24:29;11.4;90
72919;SHT30;61063;55.700;26.994;2022-10-28T18:29:15;11.4;90.2
72919;SHT30;61063;55.700;26.994;2022-10-28T18:34:03;11.5;90.3
72919;SHT30;61063;55.700;26.994;2022-10-28T18:39:43;11.5;90.3
72919;SHT30;61063;55.700;26.994;2022-10-28T18:44:43;11.5;90.4
72919;SHT30;61063;55.700;26.994;2022-10-28T18:49:15;11.6;90.5
72919;SHT30;61063;55.700;26.994;2022-10-28T18:54:43;11.6;90.4
72919;SHT30;61063;55.700;26.994;2022-10-28T18:59:43;11.6;90.4
72919;SHT30;61063;55.700;26.994;2022-10-28T19:04:43;11.7;90.3
72919;SHT30;61063;55.700;26.994;2022-10-28T19:09:17;11.7;90.1
72919;SHT30;61063;55.700;26.994;2022-10-28T19:14:29;11.7;90
72919;SHT30;61063;55.700;26.994;2022-10-28T19:19:29;11.8;89.7
72919;SHT30;61063;55.700;26.994;2022-10-28T19:23:51;11.8;89.4
72919;SHT30;61063;55.700;26.994;2022-10-28T19:28:51;11.8;89.2
72919;SHT30;61063;55.700;26.994;2022-10-28T19:34:03;11.8;89
72919;SHT30;61063;55.700;26.994;2022-10-28T19:39:29;11.8;89
72919;SHT30;61063;55.700;26.994;2022-10-28T19:44:15;11.8;89
72919;SHT30;61063;55.700;26.994;2022-10-28T19:49:43;11.8;88.9
72919;SHT30;61063;55.700;26.994;2022-10-28T19:54:04;11.8;88.7
72919;SHT30;61063;55.700;26.994;2022-10-28T19:59:43;11.7;88.5
72919;SHT30;61063;55.700;26.994;2022-10-28T20:04:15;11.7;88.3
72919;SHT30;61063;55.700;26.994;2022-10-28T20:09:41;11.7;88.1
72919;SHT30;61063;55.700;26.994;2022-10-28T20:14:04;11.7;87.9
72919;SHT30;61063;55.700;26.994;2022-10-28T20:19:03;11.7;87.8
72919;SHT30;61063;55.700;26.994;2022-10-28T20:24:15;11.7;87.8
72919;SHT30;61063;55.700;26.994;2022-10-28T20:29:29;11.7;87.6
72919;SHT30;61063;55.700;26.994;2022-10-28T20:34:43;11.7;87.5
72919;SHT30;61063;55.700;26.994;2022-10-28T20:39:41;11.7;87.5
72919;SHT30;61063;55.700;26.994;2022-10-28T20:44:03;11.7;87.5
72919;SHT30;61063;55.700;26.994;2022-10-28T20:49:29;11.8;87.5
72919;SHT30;61063;55.700;26.994;2022-10-28T20:54:29;11.8;87.6
72919;SHT30;61063;55.700;26.994;2022-10-28T20:59:43;11.8;87.6
72919;SHT30;61063;55.700;26.994;2022-10-28T21:04:04;11.8;87.7
72919;SHT30;61063;55.700;26.994;2022-10-28T21:09:41;11.9;87.8
72919;SHT30;61063;55.700;26.994;2022-10-28T21:14:41;11.9;87.9
72919;SHT30;61063;55.700;26.994;2022-10-28T21:19:29;11.9;87.8
72919;SHT30;61063;55.700;26.994;2022-10-28T21:24:43;11.9;88.1
72919;SHT30;61063;55.700;26.994;2022-10-28T21:29:03;11.9;88.3
72919;SHT30;61063;55.700;26.994;2022-10-28T21:34:03;11.9;88.4
72919;SHT30;61063;55.700;26.994;2022-10-28T21:39:15;11.9;88.5
72919;SHT30;61063;55.700;26.994;2022-10-28T21:44:29;11.9;88.6
72919;SHT30;61063;55.700;26.994;2022-10-28T21:49:39;11.9;88.8
72919;SHT30;61063;55.700;26.994;2022-10-28T21:53:51;11.9;89
72919;SHT30;61063;55.700;26.994;2022-10-28T21:58:59;11.8;89.3
72919;SHT30;61063;55.700;26.994;2022-10-28T22:04:25;11.8;89.4
72919;SHT30;61063;55.700;26.994;2022-10-28T22:09:37;11.8;89.5
72919;SHT30;61063;55.700;26.994;2022-10-28T22:14:00;11.8;89.7
72919;SHT30;61063;55.700;26.994;2022-10-28T22:18:51;11.8;89.7
72919;SHT30;61063;55.700;26.994;2022-10-28T22:23:59;11.8;89.9
72919;SHT30;61063;55.700;26.994;2022-10-28T22:29:39;11.8;90
72919;SHT30;61063;55.700;26.994;2022-10-28T22:34:11;11.8;90.1
72919;SHT30;61063;55.700;26.994;2022-10-28T22:39:37;11.8;90.2
72919;SHT30;61063;55.700;26.994;2022-10-28T22:44:11;11.8;90.2
72919;SHT30;61063;55.700;26.994;2022-10-28T22:49:11;11.8;90.2
72919;SHT30;61063;55.700;26.994;2022-10-28T22:53:59;11.8;90.3
72919;SHT30;61063;55.700;26.994;2022-10-28T22:59:25;11.8;90.3
72919;SHT30;61063;55.700;26.994;2022-10-28T23:04:37;11.8;90.3
72919;SHT30;61063;55.700;26.994;2022-10-28T23:08:59;11.9;90.3
72919;SHT30;61063;55.700;26.994;2022-10-28T23:14:39;11.8;90.5
72919;SHT30;61063;55.700;26.994;2022-10-28T23:19:25;11.8;90.6
72919;SHT30;61063;55.700;26.994;2022-10-28T23:24:25;11.8;90.8
72919;SHT30;61063;55.700;26.994;2022-10-28T23:29:01;11.9;90.9
72919;SHT30;61063;55.700;26.994;2022-10-28T23:33:57;11.9;90.9
72919;SHT30;61063;55.700;26.994;2022-10-28T23:39:11;11.9;91
72919;SHT30;61063;55.700;26.994;2022-10-28T23:44:37;11.9;91.1
72919;SHT30;61063;55.700;26.994;2022-10-28T23:49:11;11.9;91.2
72919;SHT30;61063;55.700;26.994;2022-10-28T23:54:39;12;91.2
72919;SHT30;61063;55.700;26.994;2022-10-28T23:59:03;12;91.1
